createdAt,value
2023-04-01T00:00:47.122Z,24.2512
2023-04-01T00:15:48.832Z,24.2933
2023-04-01T00:30:50.517Z,25.2553
2023-04-01T00:45:52.200Z,24.388
2023-04-01T01:00:53.890Z,24.6511
2023-04-01T01:15:55.540Z,25.2912
2023-04-01T01:30:57.207Z,23.673
2023-04-01T01:45:58.918Z,24.3001
2023-04-01T02:01:00.573Z,23.894
2023-04-01T02:16:02.269Z,24.1862
2023-04-01T02:31:03.982Z,24.2128
2023-04-01T02:46:05.695Z,24.2382
2023-04-01T03:01:07.380Z,23.6402
2023-04-01T03:16:09.059Z,24.2481
2023-04-01T03:31:10.817Z,24.0593
2023-04-01T03:46:12.606Z,25.3593
2023-04-01T04:01:14.295Z,24.0302
2023-04-01T04:16:15.981Z,24.3453
2023-04-01T04:31:17.663Z,23.608
2023-04-01T04:46:19.324Z,24.0432
2023-04-01T05:01:20.999Z,24.9693
2023-04-01T05:16:22.645Z,23.8222
2023-04-01T05:31:24.452Z,23.6501
2023-04-01T05:46:26.213Z,23.4941
2023-04-01T06:01:27.870Z,24.4394
2023-04-01T06:16:29.569Z,24.1732
2023-04-01T06:31:31.308Z,23.9621
2023-04-01T06:46:33.057Z,24.3292
2023-04-01T07:01:34.769Z,24.1571
2023-04-01T07:16:36.464Z,24.0302
2023-04-01T07:31:38.208Z,23.751
2023-04-01T07:46:40.030Z,24.4852
2023-04-01T08:01:41.784Z,24.7421
2023-04-01T08:16:43.514Z,24.3583
2023-04-01T08:31:45.428Z,24.4561
2023-04-01T08:46:47.145Z,24.0432
2023-04-01T09:01:48.835Z,24.752
2023-04-01T09:16:50.494Z,24.349
2023-04-01T09:31:52.317Z,24.2741
2023-04-01T09:46:54.086Z,24.1373
2023-04-01T10:01:55.804Z,24.0141
2023-04-01T10:16:57.501Z,24.4982
2023-04-01T10:31:59.396Z,24.1701
2023-04-01T10:47:01.042Z,23.9522
2023-04-01T11:02:11.287Z,24.6703
2023-04-01T11:17:13.786Z,24.0562
2023-04-01T11:32:15.445Z,24.2512
2023-04-01T11:47:17.085Z,24.2772
2023-04-01T12:02:21.154Z,24.3812
2023-04-01T12:17:23.048Z,25.0411
2023-04-01T12:32:24.767Z,24.2221
2023-04-01T12:47:26.700Z,24.1893
2023-04-01T13:02:28.454Z,24.5081
2023-04-01T13:17:30.150Z,24.0011
2023-04-01T13:32:43.200Z,23.881
2023-04-01T13:47:45.693Z,24.9402
2023-04-01T14:02:47.501Z,24.2902
2023-04-01T14:17:49.373Z,24.3843
2023-04-01T14:32:51.111Z,24.6511
2023-04-01T14:47:52.923Z,23.9881
2023-04-01T15:02:54.649Z,23.9522
2023-04-01T15:17:56.357Z,25.2553
2023-04-01T15:32:58.045Z,24.2543
2023-04-01T15:47:59.770Z,24.2574
2023-04-01T16:03:01.522Z,24.6542
2023-04-01T16:18:03.257Z,24.1862
2023-04-01T16:33:05.013Z,24.4004
2023-04-01T16:48:06.723Z,24.7811
2023-04-01T17:03:08.448Z,25.519
2023-04-01T17:18:10.209Z,24.96
2023-04-01T17:33:11.895Z,25.077
2023-04-01T17:48:13.557Z,25.038
2023-04-01T18:03:15.342Z,24.6449
2023-04-01T18:18:17.057Z,25.623
2023-04-01T18:33:18.693Z,25.1618
2023-04-01T18:48:20.325Z,24.9928
2023-04-01T19:03:22.043Z,25.207
2023-04-01T19:18:23.770Z,26.7732
2023-04-01T19:33:25.407Z,25.1488
2023-04-01T19:48:27.070Z,25.5289
2023-04-01T20:03:28.778Z,25.077
2023-04-01T20:18:30.429Z,25.9319
2023-04-01T20:33:32.054Z,25.9579
2023-04-01T20:48:33.700Z,25.1259
2023-04-01T21:03:35.367Z,25.48
2023-04-01T21:18:37.016Z,25.7728
2023-04-01T21:33:38.665Z,26.2569
2023-04-01T21:48:40.307Z,25.6459
2023-04-01T22:03:41.987Z,24.9959
2023-04-01T22:18:43.637Z,26.0328
2023-04-01T22:33:45.288Z,26.1789
2023-04-01T22:48:46.929Z,25.766
2023-04-01T23:03:48.573Z,25.5679
2023-04-01T23:18:50.429Z,26.0161
2023-04-01T23:33:52.083Z,25.6162
2023-04-01T23:48:53.997Z,25.5351
